createdAt,value
2023-01-29T00:00:09.224Z,101951.140625
2023-01-29T00:01:08.939Z,101947.65234375
2023-01-29T00:02:08.900Z,101952.359375
2023-01-29T00:03:08.968Z,101949.5859375
2023-01-29T00:04:09.215Z,101957.87109375
2023-01-29T00:05:25.919Z,101955.5234375
2023-01-29T00:06:08.860Z,101959.9453125
2023-01-29T00:07:08.871Z,101958.82421875
2023-01-29T00:08:08.964Z,101962.71875
2023-01-29T00:09:09.186Z,101959.125
2023-01-29T00:10:11.307Z,101961.61328125
2023-01-29T00:11:08.872Z,101963.46484375
2023-01-29T00:12:08.888Z,101961.8359375
2023-01-29T00:13:08.910Z,101962.85546875
2023-01-29T00:14:09.216Z,101961.73828125
2023-01-29T00:15:09.212Z,101965.8359375
2023-01-29T00:16:08.931Z,101968.28515625
2023-01-29T00:17:09.036Z,101966.29296875
2023-01-29T00:18:08.982Z,101967.05078125
2023-01-29T00:19:09.228Z,101967.640625
2023-01-29T00:20:08.905Z,101968.17578125
2023-01-29T00:21:11.217Z,101965.296875
2023-01-29T00:22:09.009Z,101972.4921875
2023-01-29T00:23:09.006Z,101971.61328125
2023-01-29T00:24:09.271Z,101971.92578125
2023-01-29T00:25:08.911Z,101972.375
2023-01-29T00:26:08.903Z,101973.1484375
2023-01-29T00:27:08.910Z,101977.109375
2023-01-29T00:28:08.933Z,101981.09765625
2023-01-29T00:29:09.225Z,101983.23828125
2023-01-29T00:30:09.229Z,101984.45703125
2023-01-29T00:31:09.100Z,101989.0546875
2023-01-29T00:32:11.373Z,101986.453125
2023-01-29T00:33:09.010Z,101988.7265625
2023-01-29T00:34:09.208Z,101988.27734375
2023-01-29T00:35:08.874Z,101986.82421875
2023-01-29T00:36:08.922Z,101985.00390625
2023-01-29T00:37:09.058Z,101981.97265625
2023-01-29T00:38:08.869Z,101981.12109375
2023-01-29T00:39:08.991Z,101980.90234375
2023-01-29T00:40:08.900Z,101982.875
2023-01-29T00:41:08.865Z,101981.88671875
2023-01-29T00:42:08.892Z,101980.38671875
2023-01-29T00:43:11.252Z,101979.62890625
2023-01-29T00:44:08.891Z,101976.33203125
2023-01-29T00:45:09.210Z,101974.87890625
2023-01-29T00:46:08.878Z,101973.07421875
2023-01-29T00:47:08.975Z,101974.17578125
2023-01-29T00:48:08.888Z,101979.22265625
2023-01-29T00:49:08.865Z,101979.96484375
2023-01-29T00:50:09.965Z,101977.984375
2023-01-29T00:51:08.862Z,101971.68359375
2023-01-29T00:52:08.994Z,101963.484375
2023-01-29T00:53:08.928Z,101964.59765625
2023-01-29T00:54:11.281Z,101963.2578125
2023-01-29T00:55:09.227Z,101956.69140625
2023-01-29T00:56:08.859Z,101962.61328125
2023-01-29T00:57:08.876Z,101962.5859375
2023-01-29T00:58:08.991Z,101961.32421875
2023-01-29T00:59:08.977Z,101962.90234375
2023-01-29T01:00:08.878Z,101959.8125
2023-01-29T01:01:09.344Z,101960.0234375
2023-01-29T01:02:08.971Z,101961.64453125
2023-01-29T01:03:08.929Z,101963.34375
2023-01-29T01:04:08.955Z,101966.890625
2023-01-29T01:05:11.370Z,101963.2265625
2023-01-29T01:06:09.216Z,101965.78125
2023-01-29T01:07:08.943Z,101959.47265625
2023-01-29T01:08:08.879Z,101962.375
2023-01-29T01:09:08.996Z,101957.41015625
2023-01-29T01:10:08.949Z,101949.02734375
2023-01-29T01:11:09.218Z,101946.08984375
2023-01-29T01:12:08.974Z,101947.234375
2023-01-29T01:13:08.945Z,101948.12109375
2023-01-29T01:14:08.982Z,101945.58203125
2023-01-29T01:15:09.215Z,101944.51953125
2023-01-29T01:16:13.796Z,101951.06640625
2023-01-29T01:17:08.945Z,101950.1015625
2023-01-29T01:18:08.860Z,101953.54296875
2023-01-29T01:19:09.003Z,101955.61328125
2023-01-29T01:20:09.966Z,101955.18359375
2023-01-29T01:21:09.222Z,101953.83203125
2023-01-29T01:22:08.971Z,101952.859375
2023-01-29T01:23:08.997Z,101946.8984375
2023-01-29T01:24:08.909Z,101947.3515625
2023-01-29T01:25:09.015Z,101948.98828125
2023-01-29T01:26:09.218Z,101943.20703125
2023-01-29T01:27:11.253Z,101945.61328125
2023-01-29T01:28:08.888Z,101945.9375
2023-01-29T01:29:08.974Z,101946.19140625
2023-01-29T01:30:09.221Z,101946.08203125
2023-01-29T01:31:09.313Z,101938.21875
2023-01-29T01:32:08.887Z,101934.91796875
2023-01-29T01:33:08.980Z,101936.41015625
2023-01-29T01:34:08.944Z,101932.29296875
2023-01-29T01:35:09.007Z,101930.921875
2023-01-29T01:36:09.223Z,101929.84765625
2023-01-29T01:37:08.939Z,101928.97265625
2023-01-29T01:38:11.333Z,101921.96875
2023-01-29T01:39:08.939Z,101925.078125
2023-01-29T01:40:08.928Z,101920.3671875
2023-01-29T01:41:09.216Z,101918.078125
2023-01-29T01:42:08.920Z,101915.7421875
2023-01-29T01:43:08.980Z,101913.9375
2023-01-29T01:44:08.956Z,101911.66796875
2023-01-29T01:45:09.220Z,101913.6015625
2023-01-29T01:46:09.337Z,101909.53125
2023-01-29T01:47:08.928Z,101906.46875
2023-01-29T01:48:08.885Z,101905.1171875
2023-01-29T01:49:11.270Z,101900.9375
2023-01-29T01:50:09.977Z,101901.328125
2023-01-29T01:51:09.219Z,101900.5703125
2023-01-29T01:52:09.010Z,101897.74609375
2023-01-29T01:53:08.896Z,101896.2734375
2023-01-29T01:54:08.831Z,101894.47265625
2023-01-29T01:55:08.997Z,101895.01953125
2023-01-29T01:56:09.214Z,101895.4453125
2023-01-29T01:57:09.021Z,101895.4453125
2023-01-29T01:58:08.929Z,101895.671875
2023-01-29T01:59:08.927Z,101897.171875
2023-01-29T02:00:13.742Z,101900.3515625
2023-01-29T02:01:09.291Z,101898.88671875
2023-01-29T02:02:08.912Z,101896.33203125
2023-01-29T02:03:08.935Z,101899.390625
2023-01-29T02:04:08.923Z,101897.65625
2023-01-29T02:05:08.928Z,101894.80078125
2023-01-29T02:06:09.229Z,101898.83984375
2023-01-29T02:07:08.900Z,101898.03125
2023-01-29T02:08:08.869Z,101897.07421875
2023-01-29T02:09:08.996Z,101899.74609375
2023-01-29T02:10:09.009Z,101897.828125
2023-01-29T02:11:12.252Z,101892.55078125
2023-01-29T02:12:08.977Z,101896.140625
2023-01-29T02:13:08.879Z,101897.62109375
2023-01-29T02:14:08.885Z,101896.30078125
2023-01-29T02:15:09.219Z,101893.73828125
2023-01-29T02:16:09.211Z,101891.69921875
2023-01-29T02:17:08.938Z,101891.58203125
2023-01-29T02:18:08.937Z,101898.31640625
2023-01-29T02:19:08.991Z,101896.5703125
2023-01-29T02:20:09.971Z,101899.453125
2023-01-29T02:21:09.215Z,101897.69921875
2023-01-29T02:22:11.238Z,101895.48828125
2023-01-29T02:23:08.897Z,101898.15625
2023-01-29T02:24:09.061Z,101894.44921875
2023-01-29T02:25:09.006Z,101896.91015625
2023-01-29T02:26:09.225Z,101899.50390625
2023-01-29T02:27:08.844Z,101896.34765625
2023-01-29T02:28:08.994Z,101898.26171875
2023-01-29T02:29:08.902Z,101901.0859375
2023-01-29T02:30:09.224Z,101903.42578125
2023-01-29T02:31:09.469Z,101899.69140625
2023-01-29T02:32:08.895Z,101898.828125
2023-01-29T02:33:11.331Z,101901.8203125
2023-01-29T02:34:08.985Z,101903.28125
2023-01-29T02:35:08.994Z,101904.875
2023-01-29T02:36:09.209Z,101905.0390625
2023-01-29T02:37:08.962Z,101905.1015625
2023-01-29T02:38:08.890Z,101909.96484375
2023-01-29T02:39:08.854Z,101910.17578125
2023-01-29T02:40:08.892Z,101914.9609375
2023-01-29T02:41:09.227Z,101919.0703125
2023-01-29T02:42:09.000Z,101921.37109375
2023-01-29T02:43:08.974Z,101920.26171875
2023-01-29T02:44:11.332Z,101921.05859375
2023-01-29T02:45:09.216Z,101925.02734375
2023-01-29T02:46:09.279Z,101926.65234375
2023-01-29T02:47:08.921Z,101926.015625
2023-01-29T02:48:08.872Z,101928.8125
2023-01-29T02:49:08.880Z,101930.8671875
2023-01-29T02:50:09.967Z,101928.6640625
2023-01-29T02:51:09.218Z,101932.46484375
2023-01-29T02:52:08.858Z,101935.296875
2023-01-29T02:53:08.908Z,101934.8125
2023-01-29T02:54:08.939Z,101934.14453125
2023-01-29T02:55:11.199Z,101934.10546875
2023-01-29T02:56:09.211Z,101938.8515625
2023-01-29T02:57:08.887Z,101936.23046875
2023-01-29T02:58:08.953Z,101935.609375
2023-01-29T02:59:08.988Z,101935.265625
2023-01-29T03:00:09.240Z,101931.4609375
2023-01-29T03:01:09.262Z,101932.33984375
2023-01-29T03:02:09.035Z,101933.859375
2023-01-29T03:03:08.927Z,101932.30078125
2023-01-29T03:04:08.996Z,101931.36328125
2023-01-29T03:05:08.832Z,101932.078125
2023-01-29T03:06:13.689Z,101932.8125
2023-01-29T03:07:08.880Z,101931.78125
2023-01-29T03:08:08.972Z,101931.58203125
2023-01-29T03:09:08.951Z,101924.56640625
2023-01-29T03:10:09.002Z,101921.83203125
2023-01-29T03:11:09.213Z,101918.85546875
2023-01-29T03:12:08.964Z,101916.62890625
2023-01-29T03:13:08.981Z,101912.328125
2023-01-29T03:14:08.999Z,101913.125
2023-01-29T03:15:09.219Z,101913.8203125
2023-01-29T03:16:09.058Z,101911.109375
2023-01-29T03:17:13.720Z,101908.59375
2023-01-29T03:18:08.877Z,101911.0546875
2023-01-29T03:19:09.762Z,101915.00390625
2023-01-29T03:20:09.720Z,101920.35546875
2023-01-29T03:21:08.997Z,101922.70703125
2023-01-29T03:22:09.224Z,101922.60546875
2023-01-29T03:23:08.981Z,101925.87890625
2023-01-29T03:24:09.062Z,101926.55078125
2023-01-29T03:25:08.939Z,101922.58203125
2023-01-29T03:26:08.982Z,101923.2265625
2023-01-29T03:27:09.260Z,101923.24609375
2023-01-29T03:28:11.305Z,101926.51953125
2023-01-29T03:29:08.973Z,101930.7890625
2023-01-29T03:30:09.219Z,101930.05859375
2023-01-29T03:31:09.022Z,101934.50390625
2023-01-29T03:32:09.286Z,101935.93359375
2023-01-29T03:33:09.011Z,101939.6875
2023-01-29T03:34:08.861Z,101936.80859375
2023-01-29T03:35:08.951Z,101935.61328125
2023-01-29T03:36:08.961Z,101938.890625
2023-01-29T03:37:09.210Z,101940.91796875
2023-01-29T03:38:09.959Z,101941.48828125
2023-01-29T03:39:11.327Z,101939.296875
2023-01-29T03:40:08.975Z,101939.93359375
2023-01-29T03:41:08.935Z,101937.0625
2023-01-29T03:42:09.212Z,101940.1484375
2023-01-29T03:43:08.851Z,101935.25
2023-01-29T03:44:08.936Z,101935.9921875
2023-01-29T03:45:08.950Z,101932.0078125
2023-01-29T03:46:09.003Z,101934.57421875
2023-01-29T03:47:09.214Z,101929.2578125
2023-01-29T03:48:08.946Z,101928.484375
2023-01-29T03:49:09.006Z,101924.91015625
2023-01-29T03:50:14.987Z,101922.89453125
2023-01-29T03:51:08.971Z,101920.234375
2023-01-29T03:52:09.216Z,101920.8671875
2023-01-29T03:53:08.989Z,101916.79296875
2023-01-29T03:54:08.997Z,101914.21875
2023-01-29T03:55:08.970Z,101912.984375
2023-01-29T03:56:08.955Z,101915.9453125
2023-01-29T03:57:09.218Z,101917.1328125
2023-01-29T03:58:08.985Z,101923.4609375
2023-01-29T03:59:08.977Z,101926.3125
2023-01-29T04:00:09.219Z,101927.73046875
2023-01-29T04:01:11.247Z,101930.26953125
2023-01-29T04:02:09.213Z,101930.9609375
2023-01-29T04:03:08.985Z,101932.078125
2023-01-29T04:04:08.877Z,101931.75
2023-01-29T04:05:08.926Z,101932.33203125
2023-01-29T04:06:08.987Z,101933.69921875
2023-01-29T04:07:09.009Z,101936.69140625
2023-01-29T04:08:08.853Z,101938.5
2023-01-29T04:09:08.978Z,101939.94140625
2023-01-29T04:10:08.876Z,101939.8671875
2023-01-29T04:11:08.964Z,101937.328125
2023-01-29T04:12:13.681Z,101933.12890625
2023-01-29T04:13:08.887Z,101932.4375
2023-01-29T04:14:08.868Z,101926.22265625
2023-01-29T04:15:09.215Z,101918.51171875
2023-01-29T04:16:09.057Z,101918.66015625
2023-01-29T04:17:09.210Z,101911.38671875
2023-01-29T04:18:08.888Z,101907.171875
2023-01-29T04:19:08.971Z,101907.7109375
2023-01-29T04:20:09.795Z,101902.4140625
2023-01-29T04:21:08.931Z,101900.14453125
2023-01-29T04:22:09.221Z,101898.50390625
2023-01-29T04:23:11.315Z,101894.421875
2023-01-29T04:24:09.015Z,101893.6171875
2023-01-29T04:25:09.050Z,101890.0859375
2023-01-29T04:26:08.930Z,101892.82421875
2023-01-29T04:27:09.313Z,101893.14453125
2023-01-29T04:28:08.901Z,101895.94921875
2023-01-29T04:29:08.916Z,101893.75390625
2023-01-29T04:30:09.214Z,101897.29296875
2023-01-29T04:31:08.997Z,101894.02734375
2023-01-29T04:32:09.224Z,101886.69921875
2023-01-29T04:33:08.911Z,101880.4375
2023-01-29T04:34:11.233Z,101875.08203125
2023-01-29T04:35:08.981Z,101876.09375
2023-01-29T04:36:08.942Z,101877.5546875
2023-01-29T04:37:09.217Z,101879.28125
2023-01-29T04:38:08.998Z,101888.44140625
2023-01-29T04:39:11.050Z,101892.01171875
2023-01-29T04:40:08.871Z,101897.46875
2023-01-29T04:41:08.937Z,101899.58984375
2023-01-29T04:42:09.216Z,101899.40234375
2023-01-29T04:43:08.851Z,101900.4375
2023-01-29T04:44:08.989Z,101903.875
2023-01-29T04:45:13.693Z,101906.609375
2023-01-29T04:46:08.885Z,101909.82421875
2023-01-29T04:47:09.274Z,101910.90625
2023-01-29T04:48:08.865Z,101911.12890625
2023-01-29T04:49:08.929Z,101906.67578125
2023-01-29T04:50:09.094Z,101911.1875
2023-01-29T04:51:08.940Z,101911.30078125
2023-01-29T04:52:09.213Z,101914.73828125
2023-01-29T04:53:08.997Z,101914.2109375
2023-01-29T04:54:08.988Z,101915.5703125
2023-01-29T04:55:08.960Z,101918.84765625
2023-01-29T04:56:11.319Z,101919.30078125
2023-01-29T04:57:09.211Z,101919.78125
2023-01-29T04:58:08.896Z,101921.56640625
2023-01-29T04:59:08.995Z,101925.97265625
2023-01-29T05:00:09.212Z,101925.02734375
2023-01-29T05:01:08.883Z,101922.2421875
2023-01-29T05:02:09.209Z,101918.01953125
2023-01-29T05:03:09.023Z,101920.21875
2023-01-29T05:04:09.005Z,101915.4296875
2023-01-29T05:05:08.920Z,101915.25
2023-01-29T05:06:08.903Z,101917.1328125
2023-01-29T05:07:13.737Z,101916.5
2023-01-29T05:08:08.879Z,101909.84375
2023-01-29T05:09:08.897Z,101911.62890625
2023-01-29T05:10:08.979Z,101907.07421875
2023-01-29T05:11:08.964Z,101903.2734375
2023-01-29T05:12:09.212Z,101904.9375
2023-01-29T05:13:08.945Z,101907.02734375
2023-01-29T05:14:08.997Z,101906.76171875
2023-01-29T05:15:09.223Z,101906.3515625
2023-01-29T05:16:08.900Z,101904.73046875
2023-01-29T05:17:09.212Z,101910.57421875
2023-01-29T05:18:11.408Z,101912.50390625
2023-01-29T05:19:09.014Z,101910.546875
2023-01-29T05:20:09.962Z,101911.94921875
2023-01-29T05:21:08.973Z,101910.3125
2023-01-29T05:22:09.216Z,101911.1328125
2023-01-29T05:23:09.015Z,101909.0859375
2023-01-29T05:24:08.999Z,101899.63671875
2023-01-29T05:25:08.956Z,101900.88671875
2023-01-29T05:26:09.000Z,101896.015625
2023-01-29T05:27:09.272Z,101893.50390625
2023-01-29T05:28:08.988Z,101890.25
2023-01-29T05:29:11.218Z,101886.09375
2023-01-29T05:30:09.220Z,101883.48046875
2023-01-29T05:31:08.966Z,101882.8359375
2023-01-29T05:32:09.219Z,101884.171875
2023-01-29T05:33:08.959Z,101884.7578125
2023-01-29T05:34:08.948Z,101884.7578125
2023-01-29T05:35:08.869Z,101883.8671875
2023-01-29T05:36:08.936Z,101885.0859375
2023-01-29T05:37:09.211Z,101891.50390625
2023-01-29T05:38:08.943Z,101891.10546875
2023-01-29T05:39:08.965Z,101894.14453125
2023-01-29T05:40:11.327Z,101897.640625
2023-01-29T05:41:08.885Z,101897.9453125
2023-01-29T05:42:09.212Z,101904.89453125
2023-01-29T05:43:08.911Z,101911.19921875
2023-01-29T05:44:08.882Z,101909.5546875
2023-01-29T05:45:09.274Z,101908.0859375
2023-01-29T05:46:08.969Z,101907.1640625
2023-01-29T05:47:08.962Z,101912.62890625
2023-01-29T05:48:08.880Z,101908.296875
2023-01-29T05:49:08.994Z,101908.96875
2023-01-29T05:50:09.967Z,101906.69921875
2023-01-29T05:51:11.318Z,101903.6953125
2023-01-29T05:52:09.218Z,101905.26953125
2023-01-29T05:53:08.931Z,101905.1484375
2023-01-29T05:54:08.907Z,101906.4765625
2023-01-29T05:55:08.884Z,101905.421875
2023-01-29T05:56:08.951Z,101902.96875
2023-01-29T05:57:09.214Z,101902.359375
2023-01-29T05:58:08.932Z,101900.5546875
2023-01-29T05:59:08.950Z,101897.65625
2023-01-29T06:00:09.219Z,101903.49609375
2023-01-29T06:01:08.930Z,101905.3515625
2023-01-29T06:02:11.350Z,101904.27734375
2023-01-29T06:03:09.035Z,101906.27734375
2023-01-29T06:04:08.892Z,101906.3125
2023-01-29T06:05:08.943Z,101910.30078125
2023-01-29T06:06:08.895Z,101911.8203125
2023-01-29T06:07:09.223Z,101912.6640625
2023-01-29T06:08:08.880Z,101911.8125
2023-01-29T06:09:08.987Z,101908.87109375
2023-01-29T06:10:08.940Z,101907.1953125
2023-01-29T06:11:08.976Z,101899.2578125
2023-01-29T06:12:09.221Z,101901.7734375
2023-01-29T06:13:11.333Z,101898.484375
2023-01-29T06:14:08.959Z,101902.57421875
2023-01-29T06:15:09.213Z,101901.78515625
2023-01-29T06:16:08.933Z,101907.71875
2023-01-29T06:17:09.213Z,101905.41796875
2023-01-29T06:18:08.866Z,101911.81640625
2023-01-29T06:19:08.904Z,101909.94140625
2023-01-29T06:20:09.796Z,101907.62109375
2023-01-29T06:21:08.969Z,101906.0234375
2023-01-29T06:22:09.217Z,101899.796875
2023-01-29T06:23:08.851Z,101902.40234375
2023-01-29T06:24:11.248Z,101897.3125
2023-01-29T06:25:08.860Z,101898.46484375
2023-01-29T06:26:08.975Z,101893.91796875
2023-01-29T06:27:09.207Z,101895.4375
2023-01-29T06:28:08.914Z,101896.4140625
2023-01-29T06:29:08.992Z,101895.3203125
2023-01-29T06:30:09.005Z,101897.8046875
2023-01-29T06:31:28.386Z,101899.40234375
2023-01-29T06:32:09.317Z,101900.890625
2023-01-29T06:33:08.837Z,101894.97265625
2023-01-29T06:34:08.856Z,101889.86328125
2023-01-29T06:35:11.312Z,101889.62109375
2023-01-29T06:36:08.951Z,101887.703125
2023-01-29T06:37:09.217Z,101887.25390625
2023-01-29T06:38:08.944Z,101886.48046875
2023-01-29T06:39:08.857Z,101885.1328125
2023-01-29T06:40:08.957Z,101882.90625
2023-01-29T06:41:08.985Z,101880.578125
2023-01-29T06:42:09.217Z,101879.77734375
2023-01-29T06:43:08.853Z,101884.30078125
2023-01-29T06:44:09.006Z,101885.578125
2023-01-29T06:45:09.208Z,101887.16796875
2023-01-29T06:46:11.321Z,101887.796875
2023-01-29T06:47:09.302Z,101885.046875
2023-01-29T06:48:08.942Z,101886.453125
2023-01-29T06:49:08.965Z,101889.03515625
2023-01-29T06:50:09.962Z,101885.69140625
2023-01-29T06:51:08.924Z,101882.45703125
2023-01-29T06:52:09.211Z,101887.41796875
2023-01-29T06:53:08.895Z,101890.625
2023-01-29T06:54:08.977Z,101890.2578125
2023-01-29T06:55:08.991Z,101894.4140625
2023-01-29T06:56:08.964Z,101894.37109375
2023-01-29T06:57:13.717Z,101898.71875
2023-01-29T06:58:08.924Z,101894.1171875
2023-01-29T06:59:08.938Z,101894.44140625
2023-01-29T07:00:08.974Z,101894.890625
2023-01-29T07:01:08.916Z,101898.98828125
2023-01-29T07:02:08.998Z,101902.5
2023-01-29T07:03:08.865Z,101898.46875
2023-01-29T07:04:08.859Z,101902.48828125
2023-01-29T07:05:08.937Z,101903.90234375
2023-01-29T07:06:09.033Z,101901.48828125
2023-01-29T07:07:09.212Z,101903.21875
2023-01-29T07:08:11.302Z,101912.30859375
2023-01-29T07:09:08.952Z,101913.5859375
2023-01-29T07:10:08.946Z,101912.75
2023-01-29T07:11:08.989Z,101915.16796875
2023-01-29T07:12:09.000Z,101919.578125
2023-01-29T07:13:08.929Z,101924.671875
2023-01-29T07:14:08.985Z,101927.9296875
2023-01-29T07:15:09.224Z,101927.51171875
2023-01-29T07:16:08.995Z,101932.87890625
2023-01-29T07:17:09.237Z,101929.1796875
2023-01-29T07:18:08.888Z,101931.08203125
2023-01-29T07:19:11.261Z,101928.53125
2023-01-29T07:20:08.999Z,101926.84765625
2023-01-29T07:21:08.865Z,101933.3515625
2023-01-29T07:22:08.985Z,101931.43359375
2023-01-29T07:23:09.813Z,101928.875
2023-01-29T07:24:09.053Z,101929.45703125
2023-01-29T07:25:09.000Z,101927.671875
2023-01-29T07:26:08.937Z,101923.71875
2023-01-29T07:27:09.243Z,101920.3125
2023-01-29T07:28:08.893Z,101922.90234375
2023-01-29T07:29:08.967Z,101926.99609375
2023-01-29T07:30:13.903Z,101926.765625
2023-01-29T07:31:09.024Z,101926.4140625
2023-01-29T07:32:09.251Z,101930.08203125
2023-01-29T07:33:08.942Z,101931.640625
2023-01-29T07:34:08.969Z,101928.62890625
2023-01-29T07:35:08.881Z,101934.3671875
2023-01-29T07:36:09.001Z,101937.921875
2023-01-29T07:37:08.980Z,101942.09765625
2023-01-29T07:38:08.988Z,101941.1015625
2023-01-29T07:39:08.979Z,101944.22265625
2023-01-29T07:40:08.932Z,101939.765625
2023-01-29T07:41:11.294Z,101937.640625
2023-01-29T07:42:09.214Z,101935.8125
2023-01-29T07:43:08.898Z,101936.57421875
2023-01-29T07:44:08.882Z,101933.125
2023-01-29T07:45:09.219Z,101923.5234375
2023-01-29T07:46:09.140Z,101926.23046875
2023-01-29T07:47:09.230Z,101919.453125
2023-01-29T07:48:08.896Z,101916.890625
2023-01-29T07:49:08.954Z,101908.63671875
2023-01-29T07:50:09.963Z,101908.046875
2023-01-29T07:51:08.962Z,101899.51171875
2023-01-29T07:52:13.691Z,101897.37109375
2023-01-29T07:53:08.936Z,101893.625
2023-01-29T07:54:08.939Z,101893.71484375
2023-01-29T07:55:08.945Z,101895.703125
2023-01-29T07:56:08.930Z,101897.6796875
2023-01-29T07:57:09.183Z,101894.74609375
2023-01-29T07:58:08.890Z,101894.375
2023-01-29T07:59:08.962Z,101895.15234375
2023-01-29T08:00:14.875Z,101894.265625
2023-01-29T08:01:08.905Z,101893.1328125
2023-01-29T08:02:09.276Z,101897.0390625
2023-01-29T08:03:11.287Z,101892.94921875
2023-01-29T08:04:08.988Z,101900.19921875
2023-01-29T08:05:08.989Z,101902.34765625
2023-01-29T08:06:08.890Z,101904.8515625
2023-01-29T08:07:09.215Z,101909.3359375
2023-01-29T08:08:08.978Z,101912.72265625
2023-01-29T08:09:08.978Z,101909.21875
2023-01-29T08:10:08.981Z,101912.01171875
2023-01-29T08:11:08.977Z,101913.01953125
2023-01-29T08:12:09.725Z,101917.40234375
2023-01-29T08:13:08.919Z,101920.43359375
2023-01-29T08:14:11.286Z,101925.046875
2023-01-29T08:15:09.221Z,101926.71875
2023-01-29T08:16:08.950Z,101933.79296875
2023-01-29T08:17:09.220Z,101937.640625
2023-01-29T08:18:08.850Z,101934.578125
2023-01-29T08:19:08.942Z,101941.0390625
2023-01-29T08:20:09.971Z,101938.1796875
2023-01-29T08:21:08.948Z,101937.66015625
2023-01-29T08:22:08.990Z,101934.71875
2023-01-29T08:23:08.935Z,101933.03125
2023-01-29T08:24:08.870Z,101929.59375
2023-01-29T08:25:11.279Z,101921.984375
2023-01-29T08:26:09.006Z,101909.94140625
2023-01-29T08:27:08.874Z,101902.94140625
2023-01-29T08:28:09.025Z,101899.63671875
2023-01-29T08:29:08.979Z,101899.765625
2023-01-29T08:30:08.982Z,101899.19921875
2023-01-29T08:31:09.007Z,101903.63671875
2023-01-29T08:32:09.003Z,101903.5
2023-01-29T08:33:09.812Z,101902.93359375
2023-01-29T08:34:08.925Z,101904.25390625
2023-01-29T08:35:08.925Z,101906.37109375
2023-01-29T08:36:11.317Z,101904.66015625
2023-01-29T08:37:09.212Z,101903.3515625
2023-01-29T08:38:09.014Z,101901.66796875
2023-01-29T08:39:08.889Z,101902.0546875
2023-01-29T08:40:08.990Z,101903.9375
2023-01-29T08:41:09.005Z,101906.6328125
2023-01-29T08:42:08.959Z,101910.53515625
2023-01-29T08:43:09.717Z,101917.15625
2023-01-29T08:44:08.945Z,101920.421875
2023-01-29T08:45:09.212Z,101921.95703125
2023-01-29T08:46:08.936Z,101921.24609375
2023-01-29T08:47:13.656Z,101919.51171875
2023-01-29T08:48:08.983Z,101915.1015625
2023-01-29T08:49:08.993Z,101915.38671875
2023-01-29T08:50:08.975Z,101916.51953125
2023-01-29T08:51:08.947Z,101911.37109375
2023-01-29T08:52:09.231Z,101911.96484375
2023-01-29T08:53:08.932Z,101913.51171875
2023-01-29T08:54:08.967Z,101913.9296875
2023-01-29T08:55:08.882Z,101915.94921875
2023-01-29T08:56:08.913Z,101917.17578125
2023-01-29T08:57:09.210Z,101921.515625
2023-01-29T08:58:11.266Z,101920.87109375
2023-01-29T08:59:08.945Z,101922.73828125
2023-01-29T09:00:09.244Z,101922.85546875
2023-01-29T09:01:08.979Z,101924.91796875
2023-01-29T09:02:09.222Z,101923.10546875
2023-01-29T09:03:08.895Z,101925.64453125
2023-01-29T09:04:08.900Z,101921.6484375
2023-01-29T09:05:08.901Z,101918.78125
2023-01-29T09:06:08.982Z,101921.44140625
2023-01-29T09:07:09.220Z,101933.96484375
2023-01-29T09:08:08.922Z,101933.1953125
2023-01-29T09:09:11.269Z,101938.28515625
2023-01-29T09:10:08.907Z,101941.640625
2023-01-29T09:11:08.862Z,101947.65234375
2023-01-29T09:12:09.219Z,101946.765625
2023-01-29T09:13:08.951Z,101947.97265625
2023-01-29T09:14:08.884Z,101951.8515625
2023-01-29T09:15:09.221Z,101955.19921875
2023-01-29T09:16:09.000Z,101956.53515625
2023-01-29T09:17:09.212Z,101955.00390625
2023-01-29T09:18:08.897Z,101959.0390625
2023-01-29T09:19:08.993Z,101958.9609375
2023-01-29T09:20:11.305Z,101958.15234375
2023-01-29T09:21:08.871Z,101960.09375
2023-01-29T09:22:10.980Z,101961.5078125
2023-01-29T09:23:08.944Z,101964.86328125
2023-01-29T09:24:08.984Z,101968.05078125
2023-01-29T09:25:09.015Z,101967.31640625
2023-01-29T09:26:08.945Z,101966.83203125
2023-01-29T09:27:09.221Z,101966.74609375
2023-01-29T09:28:08.948Z,101968.078125
2023-01-29T09:29:09.000Z,101970.03125
2023-01-29T09:30:09.215Z,101966.99609375
2023-01-29T09:31:11.287Z,101969.09765625
2023-01-29T09:32:09.217Z,101965.828125
2023-01-29T09:33:08.965Z,101969.4609375
2023-01-29T09:34:08.851Z,101973.25390625
2023-01-29T09:35:08.972Z,101977.578125
2023-01-29T09:36:08.975Z,101984.4296875
2023-01-29T09:37:09.212Z,101986.04296875
2023-01-29T09:38:08.871Z,101986.79296875
2023-01-29T09:39:08.892Z,101988.8046875
2023-01-29T09:40:08.895Z,101986.74609375
2023-01-29T09:41:08.934Z,101980.8125
2023-01-29T09:42:11.343Z,101978.19140625
2023-01-29T09:43:08.996Z,101974.4453125
2023-01-29T09:44:09.002Z,101972.06640625
2023-01-29T09:45:09.217Z,101967.671875
2023-01-29T09:46:09.043Z,101964.32421875
2023-01-29T09:47:09.213Z,101963.84765625
2023-01-29T09:48:08.930Z,101964.046875
2023-01-29T09:49:08.914Z,101961.828125
2023-01-29T09:50:09.800Z,101959.4453125
2023-01-29T09:51:08.967Z,101961.3828125
2023-01-29T09:52:09.222Z,101961.05859375
2023-01-29T09:53:12.234Z,101959.9296875
2023-01-29T09:54:08.985Z,101964.0078125
2023-01-29T09:55:08.902Z,101967.68359375
2023-01-29T09:56:08.907Z,101969.5859375
2023-01-29T09:57:09.213Z,101971.1171875
2023-01-29T09:58:09.548Z,101972.453125
2023-01-29T09:59:08.984Z,101972.6953125